sensor_id;sensor_type;location;lat;lon;timestamp;temperature;humidity
25450;DHT22;13371;52.080;5.624;2023-06-26T00:00:27;26.70;78.00
25450;DHT22;13371;52.080;5.624;2023-06-26T00:02:52;26.70;77.90
25450;DHT22;13371;52.080;5.624;2023-06-26T00:05:18;26.60;78.10
25450;DHT22;13371;52.080;5.624;2023-06-26T00:07:44;26.60;78.20
25450;DHT22;13371;52.080;5.624;2023-06-26T00:10:10;26.50;78.20
25450;DHT22;13371;52.080;5.624;2023-06-26T00:12:35;26.30;79.30
25450;DHT22;13371;52.080;5.624;2023-06-26T00:15:01;26.30;79.00
25450;DHT22;13371;52.080;5.624;2023-06-26T00:17:27;26.40;78.80
25450;DHT22;13371;52.080;5.624;2023-06-26T00:19:52;26.30;79.90
25450;DHT22;13371;52.080;5.624;2023-06-26T00:22:18;26.30;79.10
25450;DHT22;13371;52.080;5.624;2023-06-26T00:24:44;26.30;79.10
25450;DHT22;13371;52.080;5.624;2023-06-26T00:27:12;26.30;79.10
25450;DHT22;13371;52.080;5.624;2023-06-26T00:29:38;26.30;78.90
25450;DHT22;13371;52.080;5.624;2023-06-26T00:32:04;26.30;79.60
25450;DHT22;13371;52.080;5.624;2023-06-26T00:34:30;26.20;79.40
25450;DHT22;13371;52.080;5.624;2023-06-26T00:36:56;26.20;79.60
25450;DHT22;13371;52.080;5.624;2023-06-26T00:39:21;26.20;79.70
25450;DHT22;13371;52.080;5.624;2023-06-26T00:41:47;26.20;80.00
25450;DHT22;13371;52.080;5.624;2023-06-26T00:44:13;26.10;80.30
25450;DHT22;13371;52.080;5.624;2023-06-26T00:46:38;26.00;80.60
25450;DHT22;13371;52.080;5.624;2023-06-26T00:49:04;26.00;80.60
25450;DHT22;13371;52.080;5.624;2023-06-26T00:51:30;25.90;80.90
25450;DHT22;13371;52.080;5.624;2023-06-26T00:53:57;25.60;81.90
25450;DHT22;13371;52.080;5.624;2023-06-26T00:56:23;25.70;81.70
25450;DHT22;13371;52.080;5.624;2023-06-26T00:58:49;25.80;81.50
25450;DHT22;13371;52.080;5.624;2023-06-26T01:01:15;25.90;81.50
25450;DHT22;13371;52.080;5.624;2023-06-26T01:03:46;25.90;81.50
25450;DHT22;13371;52.080;5.624;2023-06-26T01:06:17;25.80;81.50
25450;DHT22;13371;52.080;5.624;2023-06-26T01:08:44;25.80;81.50
25450;DHT22;13371;52.080;5.624;2023-06-26T01:11:10;25.70;81.50
25450;DHT22;13371;52.080;5.624;2023-06-26T01:13:36;25.70;81.60
25450;DHT22;13371;52.080;5.624;2023-06-26T01:16:02;25.40;82.50
25450;DHT22;13371;52.080;5.624;2023-06-26T01:18:29;25.50;82.50
25450;DHT22;13371;52.080;5.624;2023-06-26T01:20:56;25.50;82.70
25450;DHT22;13371;52.080;5.624;2023-06-26T01:23:38;25.40;82.60
25450;DHT22;13371;52.080;5.624;2023-06-26T01:28:40;25.60;82.20
25450;DHT22;13371;52.080;5.624;2023-06-26T01:31:07;25.70;82.50
25450;DHT22;13371;52.080;5.624;2023-06-26T01:33:32;25.60;82.20
25450;DHT22;13371;52.080;5.624;2023-06-26T01:35:58;25.50;82.10
25450;DHT22;13371;52.080;5.624;2023-06-26T01:38:24;25.20;82.80
25450;DHT22;13371;52.080;5.624;2023-06-26T01:40:51;25.00;82.50
25450;DHT22;13371;52.080;5.624;2023-06-26T01:45:55;24.90;82.60
25450;DHT22;13371;52.080;5.624;2023-06-26T01:48:24;24.90;82.50
25450;DHT22;13371;52.080;5.624;2023-06-26T01:50:52;24.90;82.60
25450;DHT22;13371;52.080;5.624;2023-06-26T01:53:21;24.70;83.20
25450;DHT22;13371;52.080;5.624;2023-06-26T01:55:58;24.70;83.40
25450;DHT22;13371;52.080;5.624;2023-06-26T01:58:26;24.50;83.70
25450;DHT22;13371;52.080;5.624;2023-06-26T02:00:53;24.60;84.30
25450;DHT22;13371;52.080;5.624;2023-06-26T02:03:19;24.50;84.20
25450;DHT22;13371;52.080;5.624;2023-06-26T02:05:45;24.50;84.30
25450;DHT22;13371;52.080;5.624;2023-06-26T02:08:14;24.40;85.00
25450;DHT22;13371;52.080;5.624;2023-06-26T02:10:40;24.50;84.50
25450;DHT22;13371;52.080;5.624;2023-06-26T02:13:06;24.70;84.00
25450;DHT22;13371;52.080;5.624;2023-06-26T02:15:31;24.80;83.40
25450;DHT22;13371;52.080;5.624;2023-06-26T02:17:57;24.80;83.40
25450;DHT22;13371;52.080;5.624;2023-06-26T02:20:22;24.80;83.00
25450;DHT22;13371;52.080;5.624;2023-06-26T02:22:48;24.90;83.10
25450;DHT22;13371;52.080;5.624;2023-06-26T02:25:14;25.00;82.70
25450;DHT22;13371;52.080;5.624;2023-06-26T02:27:40;24.90;82.80
25450;DHT22;13371;52.080;5.624;2023-06-26T02:30:06;24.80;83.30
25450;DHT22;13371;52.080;5.624;2023-06-26T02:32:31;25.00;83.40
25450;DHT22;13371;52.080;5.624;2023-06-26T02:34:57;24.90;82.70
25450;DHT22;13371;52.080;5.624;2023-06-26T02:37:23;24.80;83.20
25450;DHT22;13371;52.080;5.624;2023-06-26T02:39:48;24.70;84.40
25450;DHT22;13371;52.080;5.624;2023-06-26T02:42:14;24.50;83.60
25450;DHT22;13371;52.080;5.624;2023-06-26T02:44:40;24.60;83.70
25450;DHT22;13371;52.080;5.624;2023-06-26T02:47:06;24.70;83.40
25450;DHT22;13371;52.080;5.624;2023-06-26T02:49:31;24.80;83.50
25450;DHT22;13371;52.080;5.624;2023-06-26T02:51:57;24.80;83.50
25450;DHT22;13371;52.080;5.624;2023-06-26T02:54:23;24.60;84.20
25450;DHT22;13371;52.080;5.624;2023-06-26T02:56:48;24.40;84.80
25450;DHT22;13371;52.080;5.624;2023-06-26T02:59:14;24.50;84.60
25450;DHT22;13371;52.080;5.624;2023-06-26T03:01:40;24.50;84.80
25450;DHT22;13371;52.080;5.624;2023-06-26T03:04:05;24.50;84.90
25450;DHT22;13371;52.080;5.624;2023-06-26T03:06:31;24.60;84.60
25450;DHT22;13371;52.080;5.624;2023-06-26T03:08:57;24.70;84.50
25450;DHT22;13371;52.080;5.624;2023-06-26T03:11:22;24.70;84.60
25450;DHT22;13371;52.080;5.624;2023-06-26T03:13:48;24.70;84.60
25450;DHT22;13371;52.080;5.624;2023-06-26T03:16:13;24.50;85.10
25450;DHT22;13371;52.080;5.624;2023-06-26T03:18:39;24.60;84.80
25450;DHT22;13371;52.080;5.624;2023-06-26T03:21:05;24.50;85.60
25450;DHT22;13371;52.080;5.624;2023-06-26T03:23:30;24.40;85.60
25450;DHT22;13371;52.080;5.624;2023-06-26T03:25:56;24.50;85.70
25450;DHT22;13371;52.080;5.624;2023-06-26T03:28:21;24.40;86.40
25450;DHT22;13371;52.080;5.624;2023-06-26T03:30:47;24.20;86.10
25450;DHT22;13371;52.080;5.624;2023-06-26T03:33:13;24.20;87.30
25450;DHT22;13371;52.080;5.624;2023-06-26T03:35:38;24.10;87.50
25450;DHT22;13371;52.080;5.624;2023-06-26T03:38:04;24.00;88.10
25450;DHT22;13371;52.080;5.624;2023-06-26T03:40:30;24.00;88.60
25450;DHT22;13371;52.080;5.624;2023-06-26T03:42:56;24.00;88.40
25450;DHT22;13371;52.080;5.624;2023-06-26T03:45:21;24.00;88.50
25450;DHT22;13371;52.080;5.624;2023-06-26T03:47:47;24.10;88.70
25450;DHT22;13371;52.080;5.624;2023-06-26T03:50:15;23.90;89.40
25450;DHT22;13371;52.080;5.624;2023-06-26T03:52:41;24.10;89.20
25450;DHT22;13371;52.080;5.624;2023-06-26T03:55:07;24.10;89.40
25450;DHT22;13371;52.080;5.624;2023-06-26T03:57:33;24.00;89.50
25450;DHT22;13371;52.080;5.624;2023-06-26T03:59:58;23.90;89.70
25450;DHT22;13371;52.080;5.624;2023-06-26T04:02:24;23.80;90.10
25450;DHT22;13371;52.080;5.624;2023-06-26T04:04:49;23.80;90.30
25450;DHT22;13371;52.080;5.624;2023-06-26T04:07:15;23.70;90.40
25450;DHT22;13371;52.080;5.624;2023-06-26T04:09:41;23.80;90.70
25450;DHT22;13371;52.080;5.624;2023-06-26T04:12:06;23.80;90.60
25450;DHT22;13371;52.080;5.624;2023-06-26T04:14:32;23.70;90.80
25450;DHT22;13371;52.080;5.624;2023-06-26T04:16:59;23.80;90.80
25450;DHT22;13371;52.080;5.624;2023-06-26T04:19:27;23.80;90.80
25450;DHT22;13371;52.080;5.624;2023-06-26T04:21:52;23.70;91.00
25450;DHT22;13371;52.080;5.624;2023-06-26T04:24:18;23.70;91.10
25450;DHT22;13371;52.080;5.624;2023-06-26T04:26:43;23.60;91.30
25450;DHT22;13371;52.080;5.624;2023-06-26T04:29:10;23.60;91.30
25450;DHT22;13371;52.080;5.624;2023-06-26T04:31:36;23.60;91.20
25450;DHT22;13371;52.080;5.624;2023-06-26T04:34:02;23.50;91.40
25450;DHT22;13371;52.080;5.624;2023-06-26T04:36:27;23.60;91.60
25450;DHT22;13371;52.080;5.624;2023-06-26T04:38:57;23.70;91.40
25450;DHT22;13371;52.080;5.624;2023-06-26T04:41:22;23.80;91.20
25450;DHT22;13371;52.080;5.624;2023-06-26T04:43:48;23.80;91.50
25450;DHT22;13371;52.080;5.624;2023-06-26T04:46:13;23.60;91.30
25450;DHT22;13371;52.080;5.624;2023-06-26T04:48:39;23.60;91.40
25450;DHT22;13371;52.080;5.624;2023-06-26T04:51:05;23.80;91.50
25450;DHT22;13371;52.080;5.624;2023-06-26T04:53:30;23.80;91.60
25450;DHT22;13371;52.080;5.624;2023-06-26T04:55:56;23.90;91.10
25450;DHT22;13371;52.080;5.624;2023-06-26T04:58:21;23.80;91.30
25450;DHT22;13371;52.080;5.624;2023-06-26T05:00:47;23.80;90.90
25450;DHT22;13371;52.080;5.624;2023-06-26T05:03:15;23.60;90.90
25450;DHT22;13371;52.080;5.624;2023-06-26T05:05:42;23.60;90.50
25450;DHT22;13371;52.080;5.624;2023-06-26T05:08:23;23.60;90.80
25450;DHT22;13371;52.080;5.624;2023-06-26T05:10:49;23.60;90.60
25450;DHT22;13371;52.080;5.624;2023-06-26T05:13:15;23.60;90.80
25450;DHT22;13371;52.080;5.624;2023-06-26T05:15:43;23.50;90.20
25450;DHT22;13371;52.080;5.624;2023-06-26T05:18:12;23.50;90.30
25450;DHT22;13371;52.080;5.624;2023-06-26T05:20:38;23.40;90.80
25450;DHT22;13371;52.080;5.624;2023-06-26T05:23:05;23.20;90.40
25450;DHT22;13371;52.080;5.624;2023-06-26T05:25:31;23.10;90.50
25450;DHT22;13371;52.080;5.624;2023-06-26T05:27:58;23.10;91.10
25450;DHT22;13371;52.080;5.624;2023-06-26T05:30:25;23.20;90.80
25450;DHT22;13371;52.080;5.624;2023-06-26T05:32:52;23.20;90.80
25450;DHT22;13371;52.080;5.624;2023-06-26T05:35:20;23.20;90.60
25450;DHT22;13371;52.080;5.624;2023-06-26T05:37:48;23.20;90.30
25450;DHT22;13371;52.080;5.624;2023-06-26T05:40:18;23.00;90.40
25450;DHT22;13371;52.080;5.624;2023-06-26T05:42:44;23.00;90.60
25450;DHT22;13371;52.080;5.624;2023-06-26T05:45:10;23.00;90.80
25450;DHT22;13371;52.080;5.624;2023-06-26T05:47:36;23.10;90.80
25450;DHT22;13371;52.080;5.624;2023-06-26T05:50:03;23.00;91.00
25450;DHT22;13371;52.080;5.624;2023-06-26T05:52:29;23.10;91.10
25450;DHT22;13371;52.080;5.624;2023-06-26T05:54:58;23.10;90.90
25450;DHT22;13371;52.080;5.624;2023-06-26T05:57:29;23.00;91.10
25450;DHT22;13371;52.080;5.624;2023-06-26T05:59:56;23.10;91.10
25450;DHT22;13371;52.080;5.624;2023-06-26T06:02:22;23.30;91.00
25450;DHT22;13371;52.080;5.624;2023-06-26T06:04:48;23.30;90.60
25450;DHT22;13371;52.080;5.624;2023-06-26T06:07:13;23.30;90.20
25450;DHT22;13371;52.080;5.624;2023-06-26T06:09:39;23.20;90.30
25450;DHT22;13371;52.080;5.624;2023-06-26T06:12:05;23.20;90.40
25450;DHT22;13371;52.080;5.624;2023-06-26T06:14:32;23.30;89.60
25450;DHT22;13371;52.080;5.624;2023-06-26T06:16:58;23.30;90.20
25450;DHT22;13371;52.080;5.624;2023-06-26T06:19:23;23.30;90.10
25450;DHT22;13371;52.080;5.624;2023-06-26T06:21:49;23.20;90.40
25450;DHT22;13371;52.080;5.624;2023-06-26T06:24:15;23.20;90.50
25450;DHT22;13371;52.080;5.624;2023-06-26T06:26:40;23.40;90.40
25450;DHT22;13371;52.080;5.624;2023-06-26T06:29:06;23.40;90.30
25450;DHT22;13371;52.080;5.624;2023-06-26T06:31:32;23.40;89.80
25450;DHT22;13371;52.080;5.624;2023-06-26T06:33:57;23.40;89.70
25450;DHT22;13371;52.080;5.624;2023-06-26T06:36:23;23.50;88.90
25450;DHT22;13371;52.080;5.624;2023-06-26T06:38:49;23.50;88.20
25450;DHT22;13371;52.080;5.624;2023-06-26T06:41:14;23.70;88.20
25450;DHT22;13371;52.080;5.624;2023-06-26T06:43:40;23.60;87.10
25450;DHT22;13371;52.080;5.624;2023-06-26T06:46:06;23.60;86.90
25450;DHT22;13371;52.080;5.624;2023-06-26T06:48:32;23.70;86.70
25450;DHT22;13371;52.080;5.624;2023-06-26T06:50:58;23.80;86.80
25450;DHT22;13371;52.080;5.624;2023-06-26T06:53:23;23.80;85.70
25450;DHT22;13371;52.080;5.624;2023-06-26T06:55:49;23.70;87.00
25450;DHT22;13371;52.080;5.624;2023-06-26T06:58:15;23.70;87.30
25450;DHT22;13371;52.080;5.624;2023-06-26T07:00:48;23.70;87.10
25450;DHT22;13371;52.080;5.624;2023-06-26T07:03:14;23.70;87.10
25450;DHT22;13371;52.080;5.624;2023-06-26T07:05:41;23.80;88.10
25450;DHT22;13371;52.080;5.624;2023-06-26T07:08:07;23.80;87.50
25450;DHT22;13371;52.080;5.624;2023-06-26T07:10:34;23.80;87.40
25450;DHT22;13371;52.080;5.624;2023-06-26T07:12:59;23.80;88.70
25450;DHT22;13371;52.080;5.624;2023-06-26T07:15:25;24.00;87.50
25450;DHT22;13371;52.080;5.624;2023-06-26T07:17:50;24.00;87.20
25450;DHT22;13371;52.080;5.624;2023-06-26T07:20:16;24.00;88.10
25450;DHT22;13371;52.080;5.624;2023-06-26T07:22:42;24.00;88.30
25450;DHT22;13371;52.080;5.624;2023-06-26T07:25:10;23.90;87.90
25450;DHT22;13371;52.080;5.624;2023-06-26T07:27:40;23.80;88.40
25450;DHT22;13371;52.080;5.624;2023-06-26T07:30:06;23.90;88.50
25450;DHT22;13371;52.080;5.624;2023-06-26T07:32:35;24.10;88.90
25450;DHT22;13371;52.080;5.624;2023-06-26T07:35:01;24.20;87.00
25450;DHT22;13371;52.080;5.624;2023-06-26T07:37:27;24.30;87.20
25450;DHT22;13371;52.080;5.624;2023-06-26T07:39:52;24.20;87.00
25450;DHT22;13371;52.080;5.624;2023-06-26T07:42:18;24.10;88.30
25450;DHT22;13371;52.080;5.624;2023-06-26T07:44:44;24.30;87.50
25450;DHT22;13371;52.080;5.624;2023-06-26T07:47:10;24.30;88.40
25450;DHT22;13371;52.080;5.624;2023-06-26T07:49:35;24.40;86.50
25450;DHT22;13371;52.080;5.624;2023-06-26T07:52:01;24.40;87.30
25450;DHT22;13371;52.080;5.624;2023-06-26T07:54:27;24.40;87.00
25450;DHT22;13371;52.080;5.624;2023-06-26T07:57:00;24.60;85.90
25450;DHT22;13371;52.080;5.624;2023-06-26T07:59:28;24.60;85.80
25450;DHT22;13371;52.080;5.624;2023-06-26T08:01:56;24.60;85.00
25450;DHT22;13371;52.080;5.624;2023-06-26T08:04:24;24.70;85.50
25450;DHT22;13371;52.080;5.624;2023-06-26T08:06:54;24.80;86.10
25450;DHT22;13371;52.080;5.624;2023-06-26T08:09:23;25.00;86.30
25450;DHT22;13371;52.080;5.624;2023-06-26T08:11:49;25.00;85.40
25450;DHT22;13371;52.080;5.624;2023-06-26T08:14:16;24.90;85.90
25450;DHT22;13371;52.080;5.624;2023-06-26T08:16:42;24.90;84.30
25450;DHT22;13371;52.080;5.624;2023-06-26T08:19:09;24.90;86.10
25450;DHT22;13371;52.080;5.624;2023-06-26T08:21:35;25.10;85.50
25450;DHT22;13371;52.080;5.624;2023-06-26T08:24:01;25.30;84.70
25450;DHT22;13371;52.080;5.624;2023-06-26T08:26:27;25.80;82.80
25450;DHT22;13371;52.080;5.624;2023-06-26T08:28:53;25.90;81.10
25450;DHT22;13371;52.080;5.624;2023-06-26T08:31:19;25.70;80.20
25450;DHT22;13371;52.080;5.624;2023-06-26T08:33:45;25.50;81.60
25450;DHT22;13371;52.080;5.624;2023-06-26T08:36:10;25.30;80.10
25450;DHT22;13371;52.080;5.624;2023-06-26T08:38:36;25.00;80.90
25450;DHT22;13371;52.080;5.624;2023-06-26T08:41:02;24.80;82.20
25450;DHT22;13371;52.080;5.624;2023-06-26T08:43:27;24.80;83.50
25450;DHT22;13371;52.080;5.624;2023-06-26T08:45:54;25.10;83.00
25450;DHT22;13371;52.080;5.624;2023-06-26T08:48:21;25.10;81.50
25450;DHT22;13371;52.080;5.624;2023-06-26T08:50:48;25.20;79.50
25450;DHT22;13371;52.080;5.624;2023-06-26T08:55:52;25.50;78.10
25450;DHT22;13371;52.080;5.624;2023-06-26T08:58:18;25.30;79.20
25450;DHT22;13371;52.080;5.624;2023-06-26T09:00:44;25.40;78.90
25450;DHT22;13371;52.080;5.624;2023-06-26T09:03:09;25.20;78.10
25450;DHT22;13371;52.080;5.624;2023-06-26T09:05:35;25.30;77.10
25450;DHT22;13371;52.080;5.624;2023-06-26T09:08:02;25.60;78.10
25450;DHT22;13371;52.080;5.624;2023-06-26T09:10:27;26.00;78.30
25450;DHT22;13371;52.080;5.624;2023-06-26T09:12:56;26.30;72.50
25450;DHT22;13371;52.080;5.624;2023-06-26T09:15:23;26.40;73.70
25450;DHT22;13371;52.080;5.624;2023-06-26T09:17:50;26.20;72.90
25450;DHT22;13371;52.080;5.624;2023-06-26T09:20:15;25.80;76.10
25450;DHT22;13371;52.080;5.624;2023-06-26T09:22:42;25.70;76.80
25450;DHT22;13371;52.080;5.624;2023-06-26T09:25:09;25.70;76.20
25450;DHT22;13371;52.080;5.624;2023-06-26T09:27:38;25.50;73.80
25450;DHT22;13371;52.080;5.624;2023-06-26T09:30:05;25.30;72.90
25450;DHT22;13371;52.080;5.624;2023-06-26T09:32:36;25.30;73.00
25450;DHT22;13371;52.080;5.624;2023-06-26T09:35:03;25.20;73.20
25450;DHT22;13371;52.080;5.624;2023-06-26T09:37:29;25.30;73.30
25450;DHT22;13371;52.080;5.624;2023-06-26T09:39:55;25.40;74.40
25450;DHT22;13371;52.080;5.624;2023-06-26T09:42:21;25.50;72.70
25450;DHT22;13371;52.080;5.624;2023-06-26T09:44:50;25.50;72.90
25450;DHT22;13371;52.080;5.624;2023-06-26T09:47:17;25.50;71.30
25450;DHT22;13371;52.080;5.624;2023-06-26T09:49:43;25.50;72.20
25450;DHT22;13371;52.080;5.624;2023-06-26T09:52:09;25.80;71.90
25450;DHT22;13371;52.080;5.624;2023-06-26T09:54:35;26.00;71.60
25450;DHT22;13371;52.080;5.624;2023-06-26T09:57:09;26.20;72.10
25450;DHT22;13371;52.080;5.624;2023-06-26T09:59:35;26.20;73.50
25450;DHT22;13371;52.080;5.624;2023-06-26T10:02:01;26.10;71.00
25450;DHT22;13371;52.080;5.624;2023-06-26T10:04:27;26.20;68.90
25450;DHT22;13371;52.080;5.624;2023-06-26T10:06:56;26.30;71.40
25450;DHT22;13371;52.080;5.624;2023-06-26T10:09:23;26.50;70.40
25450;DHT22;13371;52.080;5.624;2023-06-26T10:12:06;26.40;67.50
25450;DHT22;13371;52.080;5.624;2023-06-26T10:14:37;26.40;67.40
25450;DHT22;13371;52.080;5.624;2023-06-26T10:17:09;26.30;70.40
25450;DHT22;13371;52.080;5.624;2023-06-26T10:19:38;26.60;69.90
25450;DHT22;13371;52.080;5.624;2023-06-26T10:22:05;26.60;69.00
25450;DHT22;13371;52.080;5.624;2023-06-26T10:24:36;26.70;69.60
25450;DHT22;13371;52.080;5.624;2023-06-26T10:27:26;26.70;66.00
25450;DHT22;13371;52.080;5.624;2023-06-26T10:29:55;26.50;67.50
25450;DHT22;13371;52.080;5.624;2023-06-26T10:32:23;26.50;67.40
25450;DHT22;13371;52.080;5.624;2023-06-26T10:34:50;26.40;67.30
25450;DHT22;13371;52.080;5.624;2023-06-26T10:37:16;26.20;67.90
25450;DHT22;13371;52.080;5.624;2023-06-26T10:39:48;26.10;67.10
25450;DHT22;13371;52.080;5.624;2023-06-26T10:42:18;26.10;69.20
25450;DHT22;13371;52.080;5.624;2023-06-26T10:44:46;25.80;67.80
25450;DHT22;13371;52.080;5.624;2023-06-26T10:47:31;25.80;69.60
25450;DHT22;13371;52.080;5.624;2023-06-26T10:52:44;25.70;67.80
25450;DHT22;13371;52.080;5.624;2023-06-26T10:55:10;25.60;68.70
25450;DHT22;13371;52.080;5.624;2023-06-26T10:57:36;25.50;69.30
25450;DHT22;13371;52.080;5.624;2023-06-26T11:00:11;25.70;69.10
25450;DHT22;13371;52.080;5.624;2023-06-26T11:02:50;26.00;68.80
25450;DHT22;13371;52.080;5.624;2023-06-26T11:05:29;26.30;69.10
25450;DHT22;13371;52.080;5.624;2023-06-26T11:08:21;26.50;69.80
25450;DHT22;13371;52.080;5.624;2023-06-26T11:11:07;26.60;68.60
25450;DHT22;13371;52.080;5.624;2023-06-26T11:13:34;26.70;67.40
25450;DHT22;13371;52.080;5.624;2023-06-26T11:16:01;26.30;66.40
25450;DHT22;13371;52.080;5.624;2023-06-26T11:18:27;26.00;66.30
25450;DHT22;13371;52.080;5.624;2023-06-26T11:20:53;26.20;67.30
25450;DHT22;13371;52.080;5.624;2023-06-26T11:23:22;26.30;67.70
25450;DHT22;13371;52.080;5.624;2023-06-26T11:25:49;26.50;65.70
25450;DHT22;13371;52.080;5.624;2023-06-26T11:28:15;26.70;66.70
25450;DHT22;13371;52.080;5.624;2023-06-26T11:30:40;26.80;67.10
25450;DHT22;13371;52.080;5.624;2023-06-26T11:33:10;26.80;66.90
25450;DHT22;13371;52.080;5.624;2023-06-26T11:35:36;27.10;65.10
25450;DHT22;13371;52.080;5.624;2023-06-26T11:38:03;27.30;63.00
25450;DHT22;13371;52.080;5.624;2023-06-26T11:40:36;27.20;61.40
25450;DHT22;13371;52.080;5.624;2023-06-26T11:43:03;27.10;64.70
25450;DHT22;13371;52.080;5.624;2023-06-26T11:45:29;27.20;64.10
25450;DHT22;13371;52.080;5.624;2023-06-26T11:47:56;27.20;64.20
25450;DHT22;13371;52.080;5.624;2023-06-26T11:50:23;26.80;62.80
25450;DHT22;13371;52.080;5.624;2023-06-26T11:52:56;26.60;65.20
25450;DHT22;13371;52.080;5.624;2023-06-26T11:55:23;26.60;63.70
25450;DHT22;13371;52.080;5.624;2023-06-26T11:57:58;26.30;62.90
25450;DHT22;13371;52.080;5.624;2023-06-26T12:00:24;26.20;65.30
25450;DHT22;13371;52.080;5.624;2023-06-26T12:02:49;26.10;68.10
25450;DHT22;13371;52.080;5.624;2023-06-26T12:05:17;26.10;65.80
25450;DHT22;13371;52.080;5.624;2023-06-26T12:07:45;26.00;66.80
25450;DHT22;13371;52.080;5.624;2023-06-26T12:10:11;26.00;67.40
25450;DHT22;13371;52.080;5.624;2023-06-26T12:12:37;25.90;64.10
25450;DHT22;13371;52.080;5.624;2023-06-26T12:15:05;25.60;66.20
25450;DHT22;13371;52.080;5.624;2023-06-26T12:17:31;25.40;66.80
25450;DHT22;13371;52.080;5.624;2023-06-26T12:19:56;25.50;66.20
25450;DHT22;13371;52.080;5.624;2023-06-26T12:22:22;25.70;65.90
25450;DHT22;13371;52.080;5.624;2023-06-26T12:24:48;26.10;66.10
25450;DHT22;13371;52.080;5.624;2023-06-26T12:27:15;26.20;66.50
25450;DHT22;13371;52.080;5.624;2023-06-26T12:29:49;26.30;66.50
25450;DHT22;13371;52.080;5.624;2023-06-26T12:32:15;26.50;64.50
25450;DHT22;13371;52.080;5.624;2023-06-26T12:34:41;26.50;65.00
25450;DHT22;13371;52.080;5.624;2023-06-26T12:37:11;26.60;59.30
25450;DHT22;13371;52.080;5.624;2023-06-26T12:39:54;26.50;59.70
25450;DHT22;13371;52.080;5.624;2023-06-26T12:42:22;26.40;57.40
25450;DHT22;13371;52.080;5.624;2023-06-26T12:44:49;26.10;58.90
25450;DHT22;13371;52.080;5.624;2023-06-26T12:47:16;26.20;61.10
25450;DHT22;13371;52.080;5.624;2023-06-26T12:49:44;26.20;61.80
25450;DHT22;13371;52.080;5.624;2023-06-26T12:52:14;26.20;58.60
25450;DHT22;13371;52.080;5.624;2023-06-26T12:54:41;26.30;59.40
25450;DHT22;13371;52.080;5.624;2023-06-26T12:57:08;26.20;60.70
25450;DHT22;13371;52.080;5.624;2023-06-26T12:59:37;26.00;60.90
25450;DHT22;13371;52.080;5.624;2023-06-26T13:02:03;25.90;58.60
25450;DHT22;13371;52.080;5.624;2023-06-26T13:04:29;25.90;60.00
25450;DHT22;13371;52.080;5.624;2023-06-26T13:06:55;26.10;58.90
25450;DHT22;13371;52.080;5.624;2023-06-26T13:09:21;26.30;59.50
25450;DHT22;13371;52.080;5.624;2023-06-26T13:11:47;26.40;60.70
25450;DHT22;13371;52.080;5.624;2023-06-26T13:14:13;26.40;60.70
25450;DHT22;13371;52.080;5.624;2023-06-26T13:16:39;26.60;63.50
25450;DHT22;13371;52.080;5.624;2023-06-26T13:19:05;26.90;60.40
25450;DHT22;13371;52.080;5.624;2023-06-26T13:21:30;27.10;62.20
25450;DHT22;13371;52.080;5.624;2023-06-26T13:23:56;27.10;60.50
25450;DHT22;13371;52.080;5.624;2023-06-26T13:26:23;27.10;58.30
25450;DHT22;13371;52.080;5.624;2023-06-26T13:28:49;26.90;59.70
25450;DHT22;13371;52.080;5.624;2023-06-26T13:31:15;27.00;59.50
25450;DHT22;13371;52.080;5.624;2023-06-26T13:33:40;27.20;59.40
25450;DHT22;13371;52.080;5.624;2023-06-26T13:36:06;26.80;59.20
25450;DHT22;13371;52.080;5.624;2023-06-26T13:38:35;26.50;59.60
25450;DHT22;13371;52.080;5.624;2023-06-26T13:41:01;26.40;58.20
25450;DHT22;13371;52.080;5.624;2023-06-26T13:43:28;26.50;58.50
25450;DHT22;13371;52.080;5.624;2023-06-26T13:45:54;26.50;60.60
25450;DHT22;13371;52.080;5.624;2023-06-26T13:48:20;26.50;59.70
25450;DHT22;13371;52.080;5.624;2023-06-26T13:50:46;26.50;58.80
25450;DHT22;13371;52.080;5.624;2023-06-26T13:53:12;26.40;59.10
25450;DHT22;13371;52.080;5.624;2023-06-26T13:55:38;26.40;60.80
25450;DHT22;13371;52.080;5.624;2023-06-26T13:58:10;26.30;60.90
25450;DHT22;13371;52.080;5.624;2023-06-26T14:00:37;26.40;60.90
25450;DHT22;13371;52.080;5.624;2023-06-26T14:03:03;26.70;60.10
25450;DHT22;13371;52.080;5.624;2023-06-26T14:05:30;26.80;58.90
25450;DHT22;13371;52.080;5.624;2023-06-26T14:07:56;26.80;58.50
25450;DHT22;13371;52.080;5.624;2023-06-26T14:10:22;26.50;59.60
25450;DHT22;13371;52.080;5.624;2023-06-26T14:12:48;26.50;61.90
25450;DHT22;13371;52.080;5.624;2023-06-26T14:15:14;26.40;60.30
25450;DHT22;13371;52.080;5.624;2023-06-26T14:17:39;26.30;61.00
25450;DHT22;13371;52.080;5.624;2023-06-26T14:20:07;26.20;59.30
25450;DHT22;13371;52.080;5.624;2023-06-26T14:22:40;26.00;59.50
25450;DHT22;13371;52.080;5.624;2023-06-26T14:25:07;26.00;60.70
25450;DHT22;13371;52.080;5.624;2023-06-26T14:27:33;25.90;62.60
25450;DHT22;13371;52.080;5.624;2023-06-26T14:29:59;26.00;64.50
25450;DHT22;13371;52.080;5.624;2023-06-26T14:32:24;26.10;62.10
25450;DHT22;13371;52.080;5.624;2023-06-26T14:34:50;26.20;62.20
25450;DHT22;13371;52.080;5.624;2023-06-26T14:37:16;26.40;61.90
25450;DHT22;13371;52.080;5.624;2023-06-26T14:39:44;26.30;62.90
25450;DHT22;13371;52.080;5.624;2023-06-26T14:42:10;26.50;63.10
25450;DHT22;13371;52.080;5.624;2023-06-26T14:44:35;26.50;63.00
25450;DHT22;13371;52.080;5.624;2023-06-26T14:47:01;26.40;63.30
25450;DHT22;13371;52.080;5.624;2023-06-26T14:49:27;26.40;60.30
25450;DHT22;13371;52.080;5.624;2023-06-26T14:51:52;26.50;61.20
25450;DHT22;13371;52.080;5.624;2023-06-26T14:54:18;26.60;60.10
25450;DHT22;13371;52.080;5.624;2023-06-26T14:56:44;26.20;59.70
25450;DHT22;13371;52.080;5.624;2023-06-26T14:59:11;25.80;62.00
25450;DHT22;13371;52.080;5.624;2023-06-26T15:01:38;25.80;62.50
25450;DHT22;13371;52.080;5.624;2023-06-26T15:04:04;25.80;62.00
25450;DHT22;13371;52.080;5.624;2023-06-26T15:06:30;25.80;61.00
25450;DHT22;13371;52.080;5.624;2023-06-26T15:08:55;25.80;61.40
25450;DHT22;13371;52.080;5.624;2023-06-26T15:11:21;25.70;61.40
25450;DHT22;13371;52.080;5.624;2023-06-26T15:13:46;25.90;61.80
25450;DHT22;13371;52.080;5.624;2023-06-26T15:16:12;25.80;60.80
25450;DHT22;13371;52.080;5.624;2023-06-26T15:18:38;25.80;63.20
25450;DHT22;13371;52.080;5.624;2023-06-26T15:21:03;26.00;62.30
25450;DHT22;13371;52.080;5.624;2023-06-26T15:23:29;25.90;61.20
25450;DHT22;13371;52.080;5.624;2023-06-26T15:25:55;25.80;62.30
25450;DHT22;13371;52.080;5.624;2023-06-26T15:28:21;25.90;62.20
25450;DHT22;13371;52.080;5.624;2023-06-26T15:30:47;26.20;61.70
25450;DHT22;13371;52.080;5.624;2023-06-26T15:33:13;26.20;61.50
25450;DHT22;13371;52.080;5.624;2023-06-26T15:35:39;26.20;61.90
25450;DHT22;13371;52.080;5.624;2023-06-26T15:38:05;26.00;62.80